WetterOnline ( https://www.wetteronline.de )

Wetter aktuell Schwedt

Aktuelles Wetter: Angermünde (55m)

6-stündlich | Neueste Meldungen
Ortszeit Temperatur Wetter
Sa, 02.03. 1:00 5.4° C bewölkt
Fr, 01.03. 19:00 8.0° C wolkig
Fr, 01.03. 13:00 9.3° C bedeckt
Fr, 01.03. 7:00 7.8° C bedeckt
Fr, 01.03. 1:00 7.1° C bedeckt
Do, 29.02. 19:00 7.1° C bedeckt
Do, 29.02. 13:00 5.0° C leicht bewölkt
Do, 29.02. 7:00 -1.1° C fast wolkenlos
Ortszeit Temperatur Wetter
Sa, 02.03. 1:30 5.5° C bedeckt
Sa, 02.03. 1:20 5.5° C Dunst
Sa, 02.03. 1:10 5.5° C Dunst
Sa, 02.03. 1:00 5.4° C bewölkt
Sa, 02.03. 0:50 5.4° C Dunst
Sa, 02.03. 0:40 5.3° C Dunst
Sa, 02.03. 0:30 5.4° C bewölkt
Sa, 02.03. 0:00 5.7° C Nebel
Fr, 01.03. 23:30 5.4° C Nebel
Fr, 01.03. 23:00 4.6° C Nebel
Fr, 01.03. 22:30 5.6° C Nebel
Ortszeit Relative Feuchte Sichtweite
Sa, 02.03. 1:00 98% 2.2 km
Fr, 01.03. 19:00 91% 5.0 km
Fr, 01.03. 13:00 86% 5.0 km
Fr, 01.03. 7:00 93% 3.6 km
Fr, 01.03. 1:00 89% 7 km
Do, 29.02. 19:00 77% 19 km
Do, 29.02. 13:00 74% 18 km
Do, 29.02. 7:00 94% 4.6 km
Ortszeit Relative Feuchte Sichtweite
Sa, 02.03. 1:30 96% 3.0 km
Sa, 02.03. 1:20 96% -
Sa, 02.03. 1:10 98% -
Sa, 02.03. 1:00 98% 2.2 km
Sa, 02.03. 0:50 98% -
Sa, 02.03. 0:40 96% -
Sa, 02.03. 0:30 96% 2.2 km
Sa, 02.03. 0:00 99% 1.6 km
Fr, 01.03. 23:30 100% 1.6 km
Fr, 01.03. 23:00 97% 0.2 km
Fr, 01.03. 22:30 97% 0.5 km
Ortszeit Niederschlagsmenge Niederschlagsart
Sa, 02.03. 1:00 0.0 l/m2 in 6 Std. -
Fr, 01.03. 19:00 0.0 l/m2 in 12 Std. -
Fr, 01.03. 13:00 0.0 l/m2 in 6 Std. -
Fr, 01.03. 7:00 0.0 l/m2 in 12 Std. -
Fr, 01.03. 1:00 0.0 l/m2 in 6 Std. -
Do, 29.02. 19:00 0.0 l/m2 in 12 Std. -
Do, 29.02. 13:00 0.0 l/m2 in 6 Std. -
Do, 29.02. 7:00 0.0 l/m2 in 12 Std. -
Ortszeit Niederschlagsmenge Niederschlagsart
Sa, 02.03. 1:30 0.0 l/m2 in 30 Min -
Sa, 02.03. 1:20 keine Meldung -
Sa, 02.03. 1:10 keine Meldung -
Sa, 02.03. 1:00 0.0 l/m2 in 1 Std. -
Sa, 02.03. 0:50 keine Meldung -
Sa, 02.03. 0:40 keine Meldung -
Sa, 02.03. 0:30 0.0 l/m2 in 30 Min -
Sa, 02.03. 0:00 0.0 l/m2 in 1 Std. -
Fr, 01.03. 23:30 0.0 l/m2 in 30 Min -
Fr, 01.03. 23:00 0.0 l/m2 in 1 Std. -
Fr, 01.03. 22:30 0.0 l/m2 in 30 Min -
Ortszeit Stärke Spitze Richtung
km/h Bft. km/h Grad Sektor
Sa, 02.03. 1:00 4 1 11 60° NO
Fr, 01.03. 19:00 6 1 20 150° SO
Fr, 01.03. 13:00 9 2 31 170° S
Fr, 01.03. 7:00 14 3 29 150° SO
Fr, 01.03. 1:00 11 2 30 140° SO
Do, 29.02. 19:00 14 3 29 130° SO
Do, 29.02. 13:00 18 3 36 150° SO
Do, 29.02. 7:00 11 2 22 150° SO
Ortszeit Stärke Spitze Richtung
km/h Bft. km/h Grad Sektor
Sa, 02.03. 1:30 6 1 6 80° O
Sa, 02.03. 1:20 6 1 - 80° O
Sa, 02.03. 1:10 4 1 - 70° O
Sa, 02.03. 1:00 4 1 7 60° NO
Sa, 02.03. 0:50 4 1 - 60° NO
Sa, 02.03. 0:40 4 1 - 60° NO
Sa, 02.03. 0:30 2 1 4 110° O
Sa, 02.03. 0:00 4 1 7 90° O
Fr, 01.03. 23:30 4 1 7 80° O
Fr, 01.03. 23:00 4 1 4 280° W
Fr, 01.03. 22:30 2 1 4 120° SO
Ortszeit Untergrenze Bedeckung Gattung
total tief tief mittel hoch
Sa, 02.03. 1:00 1800 m 8/8 6/8 - - -
Fr, 01.03. 19:00 7200 m 8/8 0/8 - - -
Fr, 01.03. 13:00 300 m 8/8 8/8 - - -
Fr, 01.03. 7:00 150 m 8/8 8/8 - - -
Fr, 01.03. 1:00 840 m 8/8 8/8 - - -
Do, 29.02. 19:00 720 m 8/8 8/8 - - -
Do, 29.02. 13:00 10500 m 6/8 0/8 - - -
Do, 29.02. 7:00 10500 m 2/8 0/8 - - -
Ortszeit Bedeckungsgrad in Achtel und Wolkenuntergrenze
Sa, 02.03. 1:30 8(1500m) 8(1800m) 8(3300m)
Sa, 02.03. 1:20 8(1500m) 8(1800m) 8(3300m)
Sa, 02.03. 1:10 8
Sa, 02.03. 1:00 6(1800m) 8(3600m) 8(4200m)
Sa, 02.03. 0:50 6(1800m) 8(3600m) 8(4200m)
Sa, 02.03. 0:40 8
Sa, 02.03. 0:30 7(1500m) 7(3000m) 8(3600m)
Sa, 02.03. 0:00 8(1500m) 8(3900m) 8(4800m)
Fr, 01.03. 23:30 8(1470m) 8(3900m) 8(4500m)
Fr, 01.03. 23:00 3(1440m) 8(3900m) 8(8100m)
Fr, 01.03. 22:30 7(3000m) 8(3900m) 8(5100m)
Ortszeit Luftdruck NN (hPa) Tendenz (hPa in 3 Std.)
Sa, 02.03. 1:00 1007 - 0,6
Fr, 01.03. 19:00 1008 + 0,7
Fr, 01.03. 13:00 1008 - 0,3
Fr, 01.03. 7:00 1008 - 0,4
Fr, 01.03. 1:00 1010 - 1,9
Do, 29.02. 19:00 1014 - 1,5
Do, 29.02. 13:00 1018 - 1,7
Do, 29.02. 7:00 1020 - 1,1
Ortszeit Luftdruck NN (hPa) Tendenz (hPa in 3 Std.)
Sa, 02.03. 1:30 1007 - 0,9
Sa, 02.03. 1:20 1007 keine Meldung
Sa, 02.03. 1:10 1007 keine Meldung
Sa, 02.03. 1:00 1007 - 0,6
Sa, 02.03. 0:50 1007 keine Meldung
Sa, 02.03. 0:40 1007 keine Meldung
Sa, 02.03. 0:30 1007 - 0,7
Sa, 02.03. 0:00 1007 - 0,8
Fr, 01.03. 23:30 1008 - 0,7
Fr, 01.03. 23:00 1008 - 0,5
Fr, 01.03. 22:30 1008 - 0,5
Ortszeit Schneehöhe (cm)
Sa, 02.03. 1:00 0
Fr, 01.03. 19:00 0
Fr, 01.03. 13:00 0
Fr, 01.03. 7:00 0
Fr, 01.03. 1:00 0
Do, 29.02. 19:00 0
Do, 29.02. 13:00 0
Do, 29.02. 7:00 0
Ortszeit Schneehöhe (cm)
Sa, 02.03. 1:30 0
Sa, 02.03. 1:20 0
Sa, 02.03. 1:10 -
Sa, 02.03. 1:00 0
Sa, 02.03. 0:50 0
Sa, 02.03. 0:40 -
Sa, 02.03. 0:30 0
Sa, 02.03. 0:00 0
Fr, 01.03. 23:30 0
Fr, 01.03. 23:00 0
Fr, 01.03. 22:30 0
Link zu dieser Seite / Seite empfehlen

Das Wetter in ...